sensor_id;sensor_type;location;lat;lon;timestamp;P1;durP1;ratioP1;P2;durP2;ratioP2
19951;SDS011;10137;49.406;19.484;2023-03-01T00:01:07;69.13;;;31.87;;
19951;SDS011;10137;49.406;19.484;2023-03-01T00:03:38;65.33;;;29.17;;
19951;SDS011;10137;49.406;19.484;2023-03-01T00:06:05;65.93;;;29.37;;
19951;SDS011;10137;49.406;19.484;2023-03-01T00:08:33;62.30;;;30.07;;
19951;SDS011;10137;49.406;19.484;2023-03-01T00:11:02;60.93;;;27.67;;
19951;SDS011;10137;49.406;19.484;2023-03-01T00:13:30;57.67;;;28.13;;
19951;SDS011;10137;49.406;19.484;2023-03-01T00:15:57;62.93;;;26.83;;
19951;SDS011;10137;49.406;19.484;2023-03-01T00:18:24;56.20;;;27.27;;
19951;SDS011;10137;49.406;19.484;2023-03-01T00:20:54;55.07;;;26.97;;
19951;SDS011;10137;49.406;19.484;2023-03-01T00:23:21;61.67;;;28.80;;
19951;SDS011;10137;49.406;19.484;2023-03-01T00:25:49;55.20;;;26.23;;
19951;SDS011;10137;49.406;19.484;2023-03-01T00:28:20;56.00;;;26.10;;
19951;SDS011;10137;49.406;19.484;2023-03-01T00:30:47;53.57;;;25.43;;
19951;SDS011;10137;49.406;19.484;2023-03-01T00:33:14;55.20;;;25.93;;
19951;SDS011;10137;49.406;19.484;2023-03-01T00:35:41;55.40;;;24.70;;
19951;SDS011;10137;49.406;19.484;2023-03-01T00:38:10;54.67;;;25.13;;
19951;SDS011;10137;49.406;19.484;2023-03-01T00:40:37;52.13;;;25.10;;
19951;SDS011;10137;49.406;19.484;2023-03-01T00:43:04;57.53;;;25.93;;
19951;SDS011;10137;49.406;19.484;2023-03-01T00:45:32;59.73;;;25.93;;
19951;SDS011;10137;49.406;19.484;2023-03-01T00:47:59;53.33;;;24.00;;
19951;SDS011;10137;49.406;19.484;2023-03-01T00:50:26;52.63;;;25.13;;
19951;SDS011;10137;49.406;19.484;2023-03-01T00:52:54;50.83;;;23.20;;
19951;SDS011;10137;49.406;19.484;2023-03-01T00:55:23;51.67;;;23.83;;
19951;SDS011;10137;49.406;19.484;2023-03-01T00:57:52;57.60;;;26.67;;
19951;SDS011;10137;49.406;19.484;2023-03-01T01:00:19;61.33;;;29.23;;
19951;SDS011;10137;49.406;19.484;2023-03-01T01:02:47;55.37;;;26.37;;
19951;SDS011;10137;49.406;19.484;2023-03-01T01:05:14;57.00;;;26.20;;
19951;SDS011;10137;49.406;19.484;2023-03-01T01:07:46;59.27;;;26.63;;
19951;SDS011;10137;49.406;19.484;2023-03-01T01:10:13;56.67;;;25.47;;
19951;SDS011;10137;49.406;19.484;2023-03-01T01:12:43;55.77;;;26.30;;
19951;SDS011;10137;49.406;19.484;2023-03-01T01:15:12;58.67;;;26.63;;
19951;SDS011;10137;49.406;19.484;2023-03-01T01:17:41;61.90;;;26.43;;
19951;SDS011;10137;49.406;19.484;2023-03-01T01:20:09;58.97;;;28.17;;
19951;SDS011;10137;49.406;19.484;2023-03-01T01:22:42;58.83;;;26.37;;
19951;SDS011;10137;49.406;19.484;2023-03-01T01:25:09;52.80;;;24.93;;
19951;SDS011;10137;49.406;19.484;2023-03-01T01:27:38;53.73;;;24.77;;
19951;SDS011;10137;49.406;19.484;2023-03-01T01:30:07;55.47;;;26.07;;
19951;SDS011;10137;49.406;19.484;2023-03-01T01:32:35;56.23;;;25.80;;
19951;SDS011;10137;49.406;19.484;2023-03-01T01:35:04;62.13;;;27.57;;
19951;SDS011;10137;49.406;19.484;2023-03-01T01:37:32;62.07;;;26.67;;
19951;SDS011;10137;49.406;19.484;2023-03-01T01:39:59;52.80;;;26.20;;
19951;SDS011;10137;49.406;19.484;2023-03-01T01:42:29;54.03;;;25.27;;
19951;SDS011;10137;49.406;19.484;2023-03-01T01:47:52;50.87;;;22.50;;
19951;SDS011;10137;49.406;19.484;2023-03-01T01:50:21;47.43;;;21.60;;
19951;SDS011;10137;49.406;19.484;2023-03-01T01:52:50;47.33;;;22.13;;
19951;SDS011;10137;49.406;19.484;2023-03-01T01:55:23;46.57;;;21.63;;
19951;SDS011;10137;49.406;19.484;2023-03-01T01:57:54;51.47;;;23.67;;
19951;SDS011;10137;49.406;19.484;2023-03-01T02:00:27;47.67;;;23.17;;
19951;SDS011;10137;49.406;19.484;2023-03-01T02:02:57;53.27;;;23.67;;
19951;SDS011;10137;49.406;19.484;2023-03-01T02:05:28;47.83;;;23.33;;
19951;SDS011;10137;49.406;19.484;2023-03-01T02:08:03;49.20;;;23.90;;
19951;SDS011;10137;49.406;19.484;2023-03-01T02:10:31;45.90;;;23.60;;
19951;SDS011;10137;49.406;19.484;2023-03-01T02:13:00;48.70;;;22.17;;
19951;SDS011;10137;49.406;19.484;2023-03-01T02:15:32;51.20;;;23.90;;
19951;SDS011;10137;49.406;19.484;2023-03-01T02:18:00;51.33;;;24.40;;
19951;SDS011;10137;49.406;19.484;2023-03-01T02:20:30;51.67;;;23.07;;
19951;SDS011;10137;49.406;19.484;2023-03-01T02:23:05;59.80;;;25.00;;
19951;SDS011;10137;49.406;19.484;2023-03-01T02:25:35;52.83;;;24.70;;
19951;SDS011;10137;49.406;19.484;2023-03-01T02:28:08;60.03;;;26.87;;
19951;SDS011;10137;49.406;19.484;2023-03-01T02:30:48;53.83;;;24.23;;
19951;SDS011;10137;49.406;19.484;2023-03-01T02:33:35;51.97;;;24.03;;
19951;SDS011;10137;49.406;19.484;2023-03-01T02:36:04;45.40;;;21.63;;
19951;SDS011;10137;49.406;19.484;2023-03-01T02:38:33;42.57;;;20.37;;
19951;SDS011;10137;49.406;19.484;2023-03-01T02:41:03;51.70;;;23.53;;
19951;SDS011;10137;49.406;19.484;2023-03-01T02:43:36;48.30;;;21.63;;
19951;SDS011;10137;49.406;19.484;2023-03-01T02:46:05;44.67;;;22.37;;
19951;SDS011;10137;49.406;19.484;2023-03-01T02:48:41;49.43;;;22.13;;
19951;SDS011;10137;49.406;19.484;2023-03-01T02:51:11;50.77;;;22.57;;
19951;SDS011;10137;49.406;19.484;2023-03-01T02:53:49;48.87;;;22.20;;
19951;SDS011;10137;49.406;19.484;2023-03-01T02:56:27;50.83;;;22.43;;
19951;SDS011;10137;49.406;19.484;2023-03-01T02:58:57;46.10;;;21.60;;
19951;SDS011;10137;49.406;19.484;2023-03-01T03:01:26;52.60;;;23.77;;
19951;SDS011;10137;49.406;19.484;2023-03-01T03:04:01;48.73;;;23.37;;
19951;SDS011;10137;49.406;19.484;2023-03-01T03:06:31;53.77;;;24.63;;
19951;SDS011;10137;49.406;19.484;2023-03-01T03:08:58;47.77;;;23.40;;
19951;SDS011;10137;49.406;19.484;2023-03-01T03:11:25;52.53;;;24.57;;
19951;SDS011;10137;49.406;19.484;2023-03-01T03:13:52;51.60;;;22.23;;
19951;SDS011;10137;49.406;19.484;2023-03-01T03:16:21;44.67;;;21.43;;
19951;SDS011;10137;49.406;19.484;2023-03-01T03:18:48;48.77;;;22.03;;
19951;SDS011;10137;49.406;19.484;2023-03-01T03:21:15;45.70;;;20.30;;
19951;SDS011;10137;49.406;19.484;2023-03-01T03:23:42;44.97;;;20.77;;
19951;SDS011;10137;49.406;19.484;2023-03-01T03:26:10;46.97;;;21.77;;
19951;SDS011;10137;49.406;19.484;2023-03-01T03:28:40;39.77;;;19.57;;
19951;SDS011;10137;49.406;19.484;2023-03-01T03:31:07;45.67;;;20.47;;
19951;SDS011;10137;49.406;19.484;2023-03-01T03:33:36;39.97;;;19.50;;
19951;SDS011;10137;49.406;19.484;2023-03-01T03:36:05;44.10;;;21.30;;
19951;SDS011;10137;49.406;19.484;2023-03-01T03:38:38;45.93;;;22.37;;
19951;SDS011;10137;49.406;19.484;2023-03-01T03:41:06;44.00;;;20.33;;
19951;SDS011;10137;49.406;19.484;2023-03-01T03:43:36;48.33;;;22.20;;
19951;SDS011;10137;49.406;19.484;2023-03-01T03:46:04;46.13;;;21.97;;
19951;SDS011;10137;49.406;19.484;2023-03-01T03:48:32;46.07;;;21.67;;
19951;SDS011;10137;49.406;19.484;2023-03-01T03:51:02;50.10;;;23.00;;
19951;SDS011;10137;49.406;19.484;2023-03-01T03:53:34;52.20;;;23.83;;
19951;SDS011;10137;49.406;19.484;2023-03-01T03:56:01;49.93;;;24.93;;
19951;SDS011;10137;49.406;19.484;2023-03-01T03:58:28;50.77;;;23.13;;
19951;SDS011;10137;49.406;19.484;2023-03-01T04:00:56;48.03;;;23.47;;
19951;SDS011;10137;49.406;19.484;2023-03-01T04:03:26;50.77;;;22.87;;
19951;SDS011;10137;49.406;19.484;2023-03-01T04:05:56;51.93;;;23.47;;
19951;SDS011;10137;49.406;19.484;2023-03-01T04:08:25;48.93;;;22.50;;
19951;SDS011;10137;49.406;19.484;2023-03-01T04:10:56;45.93;;;21.77;;
19951;SDS011;10137;49.406;19.484;2023-03-01T04:13:24;44.10;;;20.47;;
19951;SDS011;10137;49.406;19.484;2023-03-01T04:15:51;44.03;;;21.23;;
19951;SDS011;10137;49.406;19.484;2023-03-01T04:18:19;47.77;;;21.47;;
19951;SDS011;10137;49.406;19.484;2023-03-01T04:20:48;48.33;;;20.87;;
19951;SDS011;10137;49.406;19.484;2023-03-01T04:23:17;47.30;;;21.50;;
19951;SDS011;10137;49.406;19.484;2023-03-01T04:25:48;41.80;;;20.17;;
19951;SDS011;10137;49.406;19.484;2023-03-01T04:28:18;45.20;;;19.93;;
19951;SDS011;10137;49.406;19.484;2023-03-01T04:30:48;42.43;;;19.90;;
19951;SDS011;10137;49.406;19.484;2023-03-01T04:33:19;47.47;;;19.53;;
19951;SDS011;10137;49.406;19.484;2023-03-01T04:35:46;45.23;;;20.50;;
19951;SDS011;10137;49.406;19.484;2023-03-01T04:38:14;51.50;;;21.67;;
19951;SDS011;10137;49.406;19.484;2023-03-01T04:40:42;45.67;;;21.27;;
19951;SDS011;10137;49.406;19.484;2023-03-01T04:43:14;39.47;;;19.30;;
19951;SDS011;10137;49.406;19.484;2023-03-01T04:45:44;47.13;;;19.53;;
19951;SDS011;10137;49.406;19.484;2023-03-01T04:48:11;38.57;;;19.17;;
19951;SDS011;10137;49.406;19.484;2023-03-01T04:50:38;38.63;;;19.03;;
19951;SDS011;10137;49.406;19.484;2023-03-01T04:53:05;37.67;;;17.90;;
19951;SDS011;10137;49.406;19.484;2023-03-01T04:55:33;43.17;;;19.07;;
19951;SDS011;10137;49.406;19.484;2023-03-01T04:58:00;46.93;;;19.90;;
19951;SDS011;10137;49.406;19.484;2023-03-01T05:00:28;46.37;;;19.73;;
19951;SDS011;10137;49.406;19.484;2023-03-01T05:02:59;43.23;;;19.53;;
19951;SDS011;10137;49.406;19.484;2023-03-01T05:05:29;43.87;;;18.97;;
19951;SDS011;10137;49.406;19.484;2023-03-01T05:07:59;46.47;;;19.30;;
19951;SDS011;10137;49.406;19.484;2023-03-01T05:10:30;47.53;;;20.20;;
19951;SDS011;10137;49.406;19.484;2023-03-01T05:13:00;49.30;;;22.30;;
19951;SDS011;10137;49.406;19.484;2023-03-01T05:15:30;46.30;;;21.73;;
19951;SDS011;10137;49.406;19.484;2023-03-01T05:17:58;51.17;;;22.13;;
19951;SDS011;10137;49.406;19.484;2023-03-01T05:20:26;45.47;;;20.00;;
19951;SDS011;10137;49.406;19.484;2023-03-01T05:22:54;47.67;;;21.73;;
19951;SDS011;10137;49.406;19.484;2023-03-01T05:25:23;45.07;;;20.30;;
19951;SDS011;10137;49.406;19.484;2023-03-01T05:27:50;42.20;;;20.10;;
19951;SDS011;10137;49.406;19.484;2023-03-01T05:30:18;42.60;;;20.67;;
19951;SDS011;10137;49.406;19.484;2023-03-01T05:32:50;44.47;;;20.90;;
19951;SDS011;10137;49.406;19.484;2023-03-01T05:35:20;47.67;;;20.40;;
19951;SDS011;10137;49.406;19.484;2023-03-01T05:37:48;43.97;;;19.10;;
19951;SDS011;10137;49.406;19.484;2023-03-01T05:40:16;42.47;;;19.60;;
19951;SDS011;10137;49.406;19.484;2023-03-01T05:42:46;45.27;;;20.53;;
19951;SDS011;10137;49.406;19.484;2023-03-01T05:45:15;47.10;;;19.70;;
19951;SDS011;10137;49.406;19.484;2023-03-01T05:47:43;44.77;;;20.10;;
19951;SDS011;10137;49.406;19.484;2023-03-01T05:50:13;45.83;;;20.07;;
19951;SDS011;10137;49.406;19.484;2023-03-01T05:52:44;45.13;;;19.27;;
19951;SDS011;10137;49.406;19.484;2023-03-01T05:55:11;38.03;;;18.50;;
19951;SDS011;10137;49.406;19.484;2023-03-01T05:57:38;44.50;;;18.83;;
19951;SDS011;10137;49.406;19.484;2023-03-01T06:00:09;45.33;;;21.93;;
19951;SDS011;10137;49.406;19.484;2023-03-01T06:02:39;44.33;;;20.93;;
19951;SDS011;10137;49.406;19.484;2023-03-01T06:05:07;52.37;;;22.33;;
19951;SDS011;10137;49.406;19.484;2023-03-01T06:07:36;50.87;;;23.60;;
19951;SDS011;10137;49.406;19.484;2023-03-01T06:10:04;54.17;;;23.93;;
19951;SDS011;10137;49.406;19.484;2023-03-01T06:12:33;53.53;;;23.77;;
19951;SDS011;10137;49.406;19.484;2023-03-01T06:15:00;52.43;;;24.07;;
19951;SDS011;10137;49.406;19.484;2023-03-01T06:17:29;61.07;;;27.30;;
19951;SDS011;10137;49.406;19.484;2023-03-01T06:19:57;59.67;;;29.07;;
19951;SDS011;10137;49.406;19.484;2023-03-01T06:22:26;69.40;;;32.53;;
19951;SDS011;10137;49.406;19.484;2023-03-01T06:24:57;73.73;;;32.07;;
19951;SDS011;10137;49.406;19.484;2023-03-01T06:27:24;67.60;;;30.37;;
19951;SDS011;10137;49.406;19.484;2023-03-01T06:29:51;71.07;;;29.10;;
19951;SDS011;10137;49.406;19.484;2023-03-01T06:32:18;51.30;;;25.23;;
19951;SDS011;10137;49.406;19.484;2023-03-01T06:34:45;53.00;;;25.13;;
19951;SDS011;10137;49.406;19.484;2023-03-01T06:37:12;63.30;;;27.57;;
19951;SDS011;10137;49.406;19.484;2023-03-01T06:39:39;76.20;;;28.20;;
19951;SDS011;10137;49.406;19.484;2023-03-01T06:42:10;64.67;;;27.43;;
19951;SDS011;10137;49.406;19.484;2023-03-01T06:44:38;62.53;;;26.00;;
19951;SDS011;10137;49.406;19.484;2023-03-01T06:47:05;53.57;;;25.17;;
19951;SDS011;10137;49.406;19.484;2023-03-01T06:49:32;57.87;;;25.53;;
19951;SDS011;10137;49.406;19.484;2023-03-01T06:51:59;58.00;;;25.77;;
19951;SDS011;10137;49.406;19.484;2023-03-01T06:54:26;51.10;;;25.07;;
19951;SDS011;10137;49.406;19.484;2023-03-01T06:56:53;50.80;;;25.17;;
19951;SDS011;10137;49.406;19.484;2023-03-01T06:59:21;53.17;;;23.70;;
19951;SDS011;10137;49.406;19.484;2023-03-01T07:01:49;45.10;;;22.30;;
19951;SDS011;10137;49.406;19.484;2023-03-01T07:04:16;43.90;;;22.47;;
19951;SDS011;10137;49.406;19.484;2023-03-01T07:06:46;49.67;;;22.10;;
19951;SDS011;10137;49.406;19.484;2023-03-01T07:09:19;50.70;;;22.90;;
19951;SDS011;10137;49.406;19.484;2023-03-01T07:11:47;44.10;;;22.40;;
19951;SDS011;10137;49.406;19.484;2023-03-01T07:14:14;56.93;;;25.43;;
19951;SDS011;10137;49.406;19.484;2023-03-01T07:16:43;49.13;;;23.47;;
19951;SDS011;10137;49.406;19.484;2023-03-01T07:19:10;46.57;;;22.33;;
19951;SDS011;10137;49.406;19.484;2023-03-01T07:21:37;51.50;;;24.13;;
19951;SDS011;10137;49.406;19.484;2023-03-01T07:24:05;47.30;;;23.80;;
19951;SDS011;10137;49.406;19.484;2023-03-01T07:26:34;54.27;;;22.80;;
19951;SDS011;10137;49.406;19.484;2023-03-01T07:29:01;50.67;;;25.27;;
19951;SDS011;10137;49.406;19.484;2023-03-01T07:31:29;59.90;;;31.73;;
19951;SDS011;10137;49.406;19.484;2023-03-01T07:34:00;54.53;;;25.00;;
19951;SDS011;10137;49.406;19.484;2023-03-01T07:36:27;55.83;;;22.90;;
19951;SDS011;10137;49.406;19.484;2023-03-01T07:38:55;53.47;;;24.43;;
19951;SDS011;10137;49.406;19.484;2023-03-01T07:41:23;57.83;;;24.63;;
19951;SDS011;10137;49.406;19.484;2023-03-01T07:43:51;50.47;;;24.30;;
19951;SDS011;10137;49.406;19.484;2023-03-01T07:46:18;50.67;;;24.07;;
19951;SDS011;10137;49.406;19.484;2023-03-01T07:48:54;49.07;;;24.40;;
19951;SDS011;10137;49.406;19.484;2023-03-01T07:51:25;49.60;;;23.03;;
19951;SDS011;10137;49.406;19.484;2023-03-01T07:53:54;45.77;;;23.87;;
19951;SDS011;10137;49.406;19.484;2023-03-01T07:56:21;55.40;;;24.60;;
19951;SDS011;10137;49.406;19.484;2023-03-01T07:58:52;48.63;;;23.43;;
19951;SDS011;10137;49.406;19.484;2023-03-01T08:01:19;51.47;;;26.33;;
19951;SDS011;10137;49.406;19.484;2023-03-01T08:03:47;71.83;;;30.43;;
19951;SDS011;10137;49.406;19.484;2023-03-01T08:06:19;53.90;;;26.07;;
19951;SDS011;10137;49.406;19.484;2023-03-01T08:08:50;50.77;;;25.27;;
19951;SDS011;10137;49.406;19.484;2023-03-01T08:11:17;53.37;;;24.27;;
19951;SDS011;10137;49.406;19.484;2023-03-01T08:13:46;53.83;;;24.70;;
19951;SDS011;10137;49.406;19.484;2023-03-01T08:16:14;49.90;;;22.50;;
19951;SDS011;10137;49.406;19.484;2023-03-01T08:18:44;58.03;;;24.07;;
19951;SDS011;10137;49.406;19.484;2023-03-01T08:21:12;46.70;;;23.43;;
19951;SDS011;10137;49.406;19.484;2023-03-01T08:23:40;55.03;;;23.87;;
19951;SDS011;10137;49.406;19.484;2023-03-01T08:26:09;44.03;;;22.90;;
19951;SDS011;10137;49.406;19.484;2023-03-01T08:28:41;50.77;;;23.97;;
19951;SDS011;10137;49.406;19.484;2023-03-01T08:31:15;50.80;;;22.93;;
19951;SDS011;10137;49.406;19.484;2023-03-01T08:33:52;48.40;;;22.87;;
19951;SDS011;10137;49.406;19.484;2023-03-01T08:36:22;49.23;;;21.77;;
19951;SDS011;10137;49.406;19.484;2023-03-01T08:39:00;50.10;;;21.57;;
19951;SDS011;10137;49.406;19.484;2023-03-01T08:41:30;44.23;;;20.83;;
19951;SDS011;10137;49.406;19.484;2023-03-01T08:43:57;45.57;;;20.53;;
19951;SDS011;10137;49.406;19.484;2023-03-01T08:46:25;46.87;;;20.07;;
19951;SDS011;10137;49.406;19.484;2023-03-01T08:48:53;38.63;;;18.97;;
19951;SDS011;10137;49.406;19.484;2023-03-01T08:51:20;49.50;;;20.37;;
19951;SDS011;10137;49.406;19.484;2023-03-01T08:53:49;70.37;;;22.97;;
19951;SDS011;10137;49.406;19.484;2023-03-01T08:56:19;41.93;;;20.23;;
19951;SDS011;10137;49.406;19.484;2023-03-01T08:58:48;59.27;;;21.07;;
19951;SDS011;10137;49.406;19.484;2023-03-01T09:01:18;36.33;;;19.57;;
19951;SDS011;10137;49.406;19.484;2023-03-01T09:03:46;47.03;;;18.87;;
19951;SDS011;10137;49.406;19.484;2023-03-01T09:06:14;45.93;;;18.77;;
19951;SDS011;10137;49.406;19.484;2023-03-01T09:08:42;37.53;;;18.13;;
19951;SDS011;10137;49.406;19.484;2023-03-01T09:11:11;36.53;;;18.13;;
19951;SDS011;10137;49.406;19.484;2023-03-01T09:13:40;39.00;;;18.57;;
19951;SDS011;10137;49.406;19.484;2023-03-01T09:16:10;37.30;;;17.63;;
19951;SDS011;10137;49.406;19.484;2023-03-01T09:18:38;33.93;;;16.77;;
19951;SDS011;10137;49.406;19.484;2023-03-01T09:21:05;42.33;;;17.63;;
19951;SDS011;10137;49.406;19.484;2023-03-01T09:23:35;37.83;;;16.07;;
19951;SDS011;10137;49.406;19.484;2023-03-01T09:26:04;39.03;;;16.77;;
19951;SDS011;10137;49.406;19.484;2023-03-01T09:28:31;39.33;;;20.43;;
19951;SDS011;10137;49.406;19.484;2023-03-01T09:30:59;30.50;;;15.77;;
19951;SDS011;10137;49.406;19.484;2023-03-01T09:33:30;24.60;;;14.77;;
19951;SDS011;10137;49.406;19.484;2023-03-01T09:35:59;29.60;;;14.43;;
19951;SDS011;10137;49.406;19.484;2023-03-01T09:38:29;26.53;;;13.63;;
19951;SDS011;10137;49.406;19.484;2023-03-01T09:40:56;26.60;;;13.33;;
19951;SDS011;10137;49.406;19.484;2023-03-01T09:43:26;25.37;;;14.20;;
19951;SDS011;10137;49.406;19.484;2023-03-01T09:46:04;26.13;;;13.97;;
19951;SDS011;10137;49.406;19.484;2023-03-01T09:48:37;49.63;;;21.50;;
19951;SDS011;10137;49.406;19.484;2023-03-01T09:51:09;36.00;;;14.87;;
19951;SDS011;10137;49.406;19.484;2023-03-01T09:53:42;24.63;;;13.00;;
19951;SDS011;10137;49.406;19.484;2023-03-01T09:56:11;28.93;;;13.57;;
19951;SDS011;10137;49.406;19.484;2023-03-01T09:58:47;28.17;;;12.70;;
19951;SDS011;10137;49.406;19.484;2023-03-01T10:01:27;35.47;;;13.87;;
19951;SDS011;10137;49.406;19.484;2023-03-01T10:07:01;34.53;;;15.60;;
19951;SDS011;10137;49.406;19.484;2023-03-01T10:09:37;31.70;;;15.20;;
19951;SDS011;10137;49.406;19.484;2023-03-01T10:12:08;25.93;;;15.87;;
19951;SDS011;10137;49.406;19.484;2023-03-01T10:14:38;43.50;;;20.17;;
19951;SDS011;10137;49.406;19.484;2023-03-01T10:17:12;38.53;;;18.23;;
19951;SDS011;10137;49.406;19.484;2023-03-01T10:19:53;27.60;;;15.47;;
19951;SDS011;10137;49.406;19.484;2023-03-01T10:22:22;25.93;;;13.13;;
19951;SDS011;10137;49.406;19.484;2023-03-01T10:24:53;38.33;;;15.90;;
19951;SDS011;10137;49.406;19.484;2023-03-01T10:27:21;23.03;;;11.83;;
19951;SDS011;10137;49.406;19.484;2023-03-01T10:29:54;21.10;;;10.83;;
19951;SDS011;10137;49.406;19.484;2023-03-01T10:32:28;23.03;;;11.67;;
19951;SDS011;10137;49.406;19.484;2023-03-01T10:34:59;19.60;;;10.00;;
19951;SDS011;10137;49.406;19.484;2023-03-01T10:37:26;15.10;;;7.57;;
19951;SDS011;10137;49.406;19.484;2023-03-01T10:39:55;14.80;;;7.07;;
19951;SDS011;10137;49.406;19.484;2023-03-01T10:42:29;17.77;;;6.07;;
19951;SDS011;10137;49.406;19.484;2023-03-01T10:44:58;17.17;;;8.60;;
19951;SDS011;10137;49.406;19.484;2023-03-01T10:47:42;20.07;;;10.10;;
19951;SDS011;10137;49.406;19.484;2023-03-01T10:50:19;17.33;;;10.50;;
19951;SDS011;10137;49.406;19.484;2023-03-01T10:52:55;26.30;;;10.37;;
19951;SDS011;10137;49.406;19.484;2023-03-01T10:55:26;16.77;;;8.23;;
19951;SDS011;10137;49.406;19.484;2023-03-01T10:58:07;13.37;;;8.70;;
19951;SDS011;10137;49.406;19.484;2023-03-01T11:00:46;12.97;;;7.17;;
19951;SDS011;10137;49.406;19.484;2023-03-01T11:03:16;14.17;;;8.03;;
19951;SDS011;10137;49.406;19.484;2023-03-01T11:05:53;12.63;;;8.13;;
19951;SDS011;10137;49.406;19.484;2023-03-01T11:08:32;21.53;;;10.03;;
19951;SDS011;10137;49.406;19.484;2023-03-01T11:11:15;22.43;;;10.63;;
19951;SDS011;10137;49.406;19.484;2023-03-01T11:13:54;21.83;;;10.67;;
19951;SDS011;10137;49.406;19.484;2023-03-01T11:16:27;30.83;;;11.37;;
19951;SDS011;10137;49.406;19.484;2023-03-01T11:18:58;23.53;;;10.87;;
19951;SDS011;10137;49.406;19.484;2023-03-01T11:21:32;23.10;;;11.33;;
19951;SDS011;10137;49.406;19.484;2023-03-01T11:24:01;22.93;;;11.40;;
19951;SDS011;10137;49.406;19.484;2023-03-01T11:26:31;19.90;;;10.63;;
19951;SDS011;10137;49.406;19.484;2023-03-01T11:29:04;37.00;;;13.13;;
19951;SDS011;10137;49.406;19.484;2023-03-01T11:31:39;26.30;;;12.20;;
19951;SDS011;10137;49.406;19.484;2023-03-01T11:34:10;33.63;;;12.57;;
19951;SDS011;10137;49.406;19.484;2023-03-01T11:36:43;22.90;;;11.70;;
19951;SDS011;10137;49.406;19.484;2023-03-01T11:39:17;25.27;;;11.77;;
19951;SDS011;10137;49.406;19.484;2023-03-01T11:41:52;29.67;;;11.93;;
19951;SDS011;10137;49.406;19.484;2023-03-01T11:44:28;25.80;;;10.50;;
19951;SDS011;10137;49.406;19.484;2023-03-01T11:47:13;25.20;;;8.83;;
19951;SDS011;10137;49.406;19.484;2023-03-01T11:52:51;9.63;;;5.33;;
19951;SDS011;10137;49.406;19.484;2023-03-01T11:55:29;15.43;;;6.90;;
19951;SDS011;10137;49.406;19.484;2023-03-01T11:58:08;11.70;;;6.37;;
19951;SDS011;10137;49.406;19.484;2023-03-01T12:00:50;13.20;;;6.40;;
19951;SDS011;10137;49.406;19.484;2023-03-01T12:03:45;12.60;;;6.30;;
19951;SDS011;10137;49.406;19.484;2023-03-01T12:06:40;6.90;;;4.20;;
19951;SDS011;10137;49.406;19.484;2023-03-01T12:09:23;11.33;;;3.77;;
19951;SDS011;10137;49.406;19.484;2023-03-01T12:12:25;11.33;;;4.30;;
19951;SDS011;10137;49.406;19.484;2023-03-01T12:14:59;10.93;;;5.53;;
19951;SDS011;10137;49.406;19.484;2023-03-01T12:17:49;13.60;;;5.90;;
19951;SDS011;10137;49.406;19.484;2023-03-01T12:20:26;18.27;;;7.30;;
19951;SDS011;10137;49.406;19.484;2023-03-01T12:23:07;14.43;;;7.33;;
19951;SDS011;10137;49.406;19.484;2023-03-01T12:25:57;22.30;;;8.80;;
19951;SDS011;10137;49.406;19.484;2023-03-01T12:31:44;19.23;;;8.27;;
19951;SDS011;10137;49.406;19.484;2023-03-01T12:34:53;15.10;;;7.10;;
19951;SDS011;10137;49.406;19.484;2023-03-01T12:37:32;13.17;;;7.13;;
19951;SDS011;10137;49.406;19.484;2023-03-01T12:40:13;14.03;;;7.53;;
19951;SDS011;10137;49.406;19.484;2023-03-01T12:42:55;13.83;;;7.27;;
19951;SDS011;10137;49.406;19.484;2023-03-01T12:45:35;13.57;;;7.40;;
19951;SDS011;10137;49.406;19.484;2023-03-01T12:48:20;16.47;;;7.97;;
19951;SDS011;10137;49.406;19.484;2023-03-01T12:51:01;19.37;;;8.07;;
19951;SDS011;10137;49.406;19.484;2023-03-01T12:53:36;19.50;;;8.40;;
19951;SDS011;10137;49.406;19.484;2023-03-01T12:56:06;20.87;;;8.70;;
19951;SDS011;10137;49.406;19.484;2023-03-01T12:58:41;20.33;;;8.27;;
19951;SDS011;10137;49.406;19.484;2023-03-01T13:01:20;15.73;;;7.50;;
19951;SDS011;10137;49.406;19.484;2023-03-01T13:03:58;18.17;;;8.20;;
19951;SDS011;10137;49.406;19.484;2023-03-01T13:06:40;16.97;;;7.57;;
19951;SDS011;10137;49.406;19.484;2023-03-01T13:09:17;14.17;;;7.47;;
19951;SDS011;10137;49.406;19.484;2023-03-01T13:11:50;18.33;;;7.73;;
19951;SDS011;10137;49.406;19.484;2023-03-01T13:19:59;14.17;;;8.17;;
19951;SDS011;10137;49.406;19.484;2023-03-01T13:22:29;21.67;;;7.80;;
19951;SDS011;10137;49.406;19.484;2023-03-01T13:25:11;14.13;;;7.70;;
19951;SDS011;10137;49.406;19.484;2023-03-01T13:27:41;19.97;;;7.40;;
19951;SDS011;10137;49.406;19.484;2023-03-01T13:39:27;16.53;;;7.93;;
19951;SDS011;10137;49.406;19.484;2023-03-01T13:41:57;19.70;;;7.20;;
19951;SDS011;10137;49.406;19.484;2023-03-01T13:44:26;25.07;;;8.03;;
19951;SDS011;10137;49.406;19.484;2023-03-01T13:47:00;11.97;;;6.73;;
19951;SDS011;10137;49.406;19.484;2023-03-01T13:49:43;13.20;;;7.07;;
19951;SDS011;10137;49.406;19.484;2023-03-01T13:52:28;15.87;;;7.60;;
19951;SDS011;10137;49.406;19.484;2023-03-01T13:55:14;18.27;;;8.37;;
19951;SDS011;10137;49.406;19.484;2023-03-01T13:57:44;14.13;;;7.13;;
19951;SDS011;10137;49.406;19.484;2023-03-01T14:05:59;17.63;;;7.37;;
19951;SDS011;10137;49.406;19.484;2023-03-01T14:08:29;14.23;;;7.17;;
19951;SDS011;10137;49.406;19.484;2023-03-01T14:11:04;19.27;;;8.27;;
19951;SDS011;10137;49.406;19.484;2023-03-01T14:13:49;14.37;;;6.80;;
19951;SDS011;10137;49.406;19.484;2023-03-01T14:16:28;17.00;;;7.23;;
19951;SDS011;10137;49.406;19.484;2023-03-01T14:19:08;16.10;;;6.87;;
19951;SDS011;10137;49.406;19.484;2023-03-01T14:21:45;10.30;;;5.80;;
19951;SDS011;10137;49.406;19.484;2023-03-01T14:24:16;9.80;;;5.70;;
19951;SDS011;10137;49.406;19.484;2023-03-01T14:26:44;13.37;;;5.83;;
19951;SDS011;10137;49.406;19.484;2023-03-01T14:29:24;12.27;;;6.60;;
19951;SDS011;10137;49.406;19.484;2023-03-01T14:31:53;11.67;;;6.60;;
19951;SDS011;10137;49.406;19.484;2023-03-01T14:34:22;12.87;;;6.03;;
19951;SDS011;10137;49.406;19.484;2023-03-01T14:36:52;18.30;;;7.67;;
19951;SDS011;10137;49.406;19.484;2023-03-01T14:39:20;13.73;;;6.00;;
19951;SDS011;10137;49.406;19.484;2023-03-01T14:41:51;27.13;;;7.33;;
19951;SDS011;10137;49.406;19.484;2023-03-01T14:44:19;13.87;;;7.23;;
19951;SDS011;10137;49.406;19.484;2023-03-01T14:46:51;16.23;;;6.50;;
19951;SDS011;10137;49.406;19.484;2023-03-01T14:49:23;14.20;;;7.27;;
19951;SDS011;10137;49.406;19.484;2023-03-01T14:51:53;12.97;;;6.27;;
19951;SDS011;10137;49.406;19.484;2023-03-01T14:54:24;18.53;;;6.57;;
19951;SDS011;10137;49.406;19.484;2023-03-01T14:56:57;26.07;;;9.53;;
19951;SDS011;10137;49.406;19.484;2023-03-01T14:59:25;15.80;;;8.00;;
19951;SDS011;10137;49.406;19.484;2023-03-01T15:01:53;17.90;;;8.30;;
19951;SDS011;10137;49.406;19.484;2023-03-01T15:04:23;24.37;;;11.03;;
19951;SDS011;10137;49.406;19.484;2023-03-01T15:06:54;22.60;;;9.90;;